createdAt,value
2022-10-19T03:43:44.838Z,100935.28
2022-10-19T03:46:47.914Z,100935.28
2022-10-19T03:49:50.705Z,100939.22
2022-10-19T03:52:55.221Z,100939.44
2022-10-19T03:56:08.719Z,100933.53
2022-10-19T03:59:14.642Z,100928.09
2022-10-19T04:02:17.088Z,100930.94
2022-10-19T04:05:19.871Z,100943.84
2022-10-19T04:08:22.325Z,100941.59
2022-10-19T04:11:27.775Z,100939.16
2022-10-19T04:14:33.190Z,100947.59
2022-10-19T04:17:43.810Z,100944.22
2022-10-19T04:20:48.525Z,100952.06
2022-10-19T04:23:53.544Z,100957.69
2022-10-19T04:26:56.704Z,100948.97
2022-10-19T04:29:59.512Z,100945.63
2022-10-19T04:33:03.030Z,100944.84
2022-10-19T04:36:08.382Z,100944.31
2022-10-19T04:39:10.875Z,100948.00
2022-10-19T04:42:13.613Z,100956.44
2022-10-19T04:45:16.143Z,100952.09
2022-10-19T04:48:18.882Z,100946.41
2022-10-19T04:51:22.704Z,100941.34
2022-10-19T04:54:25.510Z,100947.72
2022-10-19T04:57:29.039Z,100939.81
2022-10-19T05:00:33.089Z,100949.44
2022-10-19T05:03:35.953Z,100950.62
2022-10-19T05:06:38.624Z,100941.94
2022-10-19T05:09:41.096Z,100944.44
2022-10-19T05:12:43.870Z,100952.22
2022-10-19T05:15:56.428Z,100954.78
2022-10-19T05:18:59.745Z,100953.88
2022-10-19T05:22:02.276Z,100947.03
2022-10-19T05:25:06.423Z,100956.09
2022-10-19T05:28:09.006Z,100966.72
2022-10-19T05:31:18.499Z,100967.50
2022-10-19T05:34:21.180Z,100967.28
2022-10-19T05:37:25.697Z,100982.94
2022-10-19T05:40:28.558Z,100988.03
2022-10-19T05:43:31.324Z,100989.63
2022-10-19T05:46:34.755Z,100993.53
2022-10-19T05:49:39.992Z,100998.00
2022-10-19T05:52:42.790Z,100993.41
2022-10-19T05:55:45.696Z,100988.34
2022-10-19T05:58:49.438Z,100998.75
2022-10-19T06:01:52.227Z,101002.34
2022-10-19T06:04:54.978Z,101011.75
2022-10-19T06:07:57.475Z,101006.50
2022-10-19T06:11:12.294Z,101014.28
2022-10-19T06:14:16.171Z,101007.78
2022-10-19T06:17:18.997Z,101013.72
2022-10-19T06:20:22.378Z,101033.44
2022-10-19T06:23:25.258Z,101026.78
2022-10-19T06:26:28.847Z,101027.69
2022-10-19T06:29:32.296Z,101031.13
2022-10-19T06:32:34.811Z,101027.91
2022-10-19T06:35:38.394Z,101031.66
2022-10-19T06:38:41.989Z,101035.50
2022-10-19T06:41:44.843Z,101043.78
2022-10-19T06:44:49.212Z,101043.91
2022-10-19T06:47:52.203Z,101038.81
2022-10-19T06:50:59.345Z,101047.59
2022-10-19T06:54:02.246Z,101054.66
2022-10-19T06:57:04.732Z,101058.28
2022-10-19T07:00:09.093Z,101061.13
2022-10-19T07:03:11.810Z,101069.88
2022-10-19T07:06:14.739Z,101065.84
2022-10-19T07:09:19.764Z,101074.75
2022-10-19T07:12:22.954Z,101082.72
2022-10-19T07:15:25.772Z,101089.12
2022-10-19T07:18:28.831Z,101101.81
2022-10-19T07:21:31.495Z,101099.47
2022-10-19T07:24:34.323Z,101107.59
2022-10-19T07:27:38.975Z,101109.66
2022-10-19T07:30:42.237Z,101117.97
2022-10-19T07:33:44.984Z,101114.72
2022-10-19T07:36:48.186Z,101110.72
2022-10-19T07:39:50.672Z,101110.91
2022-10-19T07:42:53.696Z,101118.03
2022-10-19T07:46:07.671Z,101117.97
2022-10-19T07:49:14.138Z,101118.37
2022-10-19T07:52:16.985Z,101117.44
2022-10-19T07:55:19.915Z,101115.91
2022-10-19T07:58:22.593Z,101107.06
2022-10-19T08:01:29.029Z,101113.97
2022-10-19T08:04:55.968Z,101113.16
2022-10-19T08:07:54.692Z,101108.13
2022-10-19T08:11:12.375Z,101100.28
2022-10-19T08:14:14.886Z,101099.47
2022-10-19T08:17:17.898Z,101101.16
2022-10-19T08:20:20.643Z,101102.34
2022-10-19T08:23:23.827Z,101107.13
2022-10-19T08:26:29.928Z,101109.13
2022-10-19T08:29:32.780Z,101117.53
2022-10-19T08:32:35.603Z,101109.31
2022-10-19T08:35:38.908Z,101104.63
2022-10-19T08:38:45.141Z,101115.25
2022-10-19T08:41:53.875Z,101113.00
2022-10-19T08:45:15.523Z,101102.97
2022-10-19T08:48:33.797Z,101104.59
2022-10-19T08:51:39.977Z,101104.28
2022-10-19T08:54:57.268Z,101098.31
2022-10-19T08:58:22.942Z,101105.78
2022-10-19T09:01:41.030Z,101103.31
2022-10-19T09:04:53.912Z,101102.88
2022-10-19T09:07:57.338Z,101099.69
2022-10-19T09:11:01.182Z,101096.91
2022-10-19T09:14:25.793Z,101098.59
2022-10-19T09:17:28.914Z,101090.06
2022-10-19T09:20:41.310Z,101092.75
2022-10-19T09:23:55.230Z,101099.28
2022-10-19T09:27:00.980Z,101104.31
2022-10-19T09:30:20.137Z,101110.03
2022-10-19T09:33:35.550Z,101089.56
2022-10-19T09:36:51.557Z,101096.28
2022-10-19T09:39:56.160Z,101102.53
2022-10-19T09:43:02.945Z,101112.25
2022-10-19T09:46:20.643Z,101108.25
2022-10-19T09:49:41.772Z,101115.88
2022-10-19T09:52:46.916Z,101111.06
2022-10-19T09:56:09.412Z,101106.06
2022-10-19T09:59:22.968Z,101103.75
2022-10-19T10:02:32.536Z,101102.41
2022-10-19T10:05:38.485Z,101094.94
2022-10-19T10:08:48.522Z,101091.94
2022-10-19T10:11:51.980Z,101082.22
2022-10-19T10:14:56.433Z,101088.56
2022-10-19T10:17:59.505Z,101080.28
2022-10-19T10:21:25.118Z,101068.34
2022-10-19T10:24:31.640Z,101069.00
2022-10-19T10:27:38.286Z,101062.88
2022-10-19T10:30:41.967Z,101064.31
2022-10-19T10:34:12.126Z,101061.13
2022-10-19T10:37:44.147Z,101057.78
2022-10-19T10:41:01.343Z,101049.97
2022-10-19T10:44:08.959Z,101046.31
2022-10-19T10:47:16.673Z,101053.16
2022-10-19T10:50:23.188Z,101054.37
2022-10-19T10:53:43.238Z,101049.38
2022-10-19T10:57:06.210Z,101028.06
2022-10-19T11:00:13.228Z,101036.59
2022-10-19T11:03:30.735Z,101027.59
2022-10-19T11:06:43.735Z,101023.09
2022-10-19T11:09:58.664Z,101021.28
2022-10-19T11:13:07.047Z,101016.41
2022-10-19T11:16:16.595Z,101013.72
2022-10-19T11:19:27.459Z,101014.81
2022-10-19T11:22:41.485Z,101011.41
2022-10-19T11:26:07.841Z,101009.25
2022-10-19T11:29:20.028Z,101004.25
2022-10-19T11:33:04.509Z,101007.53
2022-10-19T11:36:25.841Z,100992.56
2022-10-19T11:39:37.314Z,100989.37
2022-10-19T11:43:19.659Z,100993.28
2022-10-19T11:46:29.784Z,100988.41
2022-10-19T11:49:51.740Z,101000.47
2022-10-19T11:53:19.342Z,101000.19
2022-10-19T11:57:09.380Z,100997.53
2022-10-19T12:00:38.169Z,100988.69
2022-10-19T12:04:03.510Z,100980.78
2022-10-19T12:07:30.058Z,100993.53
2022-10-19T12:10:55.722Z,100993.75
2022-10-19T12:14:06.042Z,100979.16
2022-10-19T12:17:24.280Z,100969.09
2022-10-19T12:20:32.081Z,100973.59
2022-10-19T12:23:38.992Z,100965.44
2022-10-19T12:26:43.038Z,100954.25
2022-10-19T12:29:49.640Z,100961.78
2022-10-19T12:33:01.072Z,100954.75
2022-10-19T12:36:42.091Z,100946.50
2022-10-19T12:40:00.428Z,100957.78
2022-10-19T12:43:21.895Z,100955.00
2022-10-19T12:46:49.836Z,100957.91
2022-10-19T12:49:56.820Z,100946.59
2022-10-19T12:52:59.384Z,100937.94
2022-10-19T12:56:10.097Z,100945.34
2022-10-19T12:59:32.233Z,100939.44
2022-10-19T13:02:39.064Z,100928.91
2022-10-19T13:05:42.255Z,100937.22
2022-10-19T13:08:48.442Z,100927.25
2022-10-19T13:12:14.781Z,100927.31
2022-10-19T13:15:36.065Z,100932.97
2022-10-19T13:19:14.078Z,100929.44
2022-10-19T13:22:26.775Z,100924.50
2022-10-19T13:25:36.727Z,100926.13
2022-10-19T13:28:51.950Z,100922.09
2022-10-19T13:31:54.593Z,100934.12
2022-10-19T13:35:22.484Z,100927.53
2022-10-19T13:38:57.359Z,100932.25
2022-10-19T13:42:00.294Z,100936.88
2022-10-19T13:45:03.094Z,100928.25
2022-10-19T13:48:22.596Z,100933.28
2022-10-19T13:51:34.342Z,100927.19
2022-10-19T13:54:41.836Z,100927.88
2022-10-19T13:58:22.212Z,100924.75
2022-10-19T14:01:37.241Z,100922.25
2022-10-19T14:04:54.993Z,100919.31
2022-10-19T14:08:29.413Z,100916.88
2022-10-19T14:11:40.432Z,100910.34
2022-10-19T14:14:44.698Z,100914.72
2022-10-19T14:17:47.708Z,100915.94
2022-10-19T14:21:00.892Z,100907.03
2022-10-19T14:24:20.195Z,100905.09
2022-10-19T14:27:24.771Z,100907.00
2022-10-19T14:30:32.259Z,100903.66
2022-10-19T14:33:39.684Z,100888.44
2022-10-19T14:36:48.328Z,100901.81
2022-10-19T14:40:00.445Z,100894.84
2022-10-19T14:43:03.189Z,100896.19
2022-10-19T14:46:08.703Z,100905.50
2022-10-19T14:49:11.903Z,100900.78
2022-10-19T14:52:32.037Z,100895.16
2022-10-19T14:55:39.639Z,100893.16
2022-10-19T14:58:55.862Z,100893.50
2022-10-19T15:02:01.279Z,100887.34
2022-10-19T15:05:05.899Z,100889.06
2022-10-19T15:08:16.849Z,100897.13
2022-10-19T15:11:49.787Z,100898.03
2022-10-19T15:14:53.019Z,100887.06
2022-10-19T15:17:56.726Z,100899.25
2022-10-19T15:21:12.286Z,100897.00
2022-10-19T15:24:27.207Z,100892.47
